Time;durP1;ratioP1;P1;durP2;ratioP2;P2;SDS_P1;SDS_P2;PMS_P1;PMS_P2;Temp;Humidity;BMP_temperature;BMP_pressure;BME280_temperature;BME280_humidity;BME280_pressure;Samples;Min_cycle;Max_cycle;Signal;HPM_P1;HPM_P2
2022/06/29 00:01:58;;;;;;;3.65;0.90;;;19.30;54.00;;;;;;4912992;29;20040;-47
2022/06/29 00:04:28;;;;;;;1.27;0.73;;;19.30;54.30;;;;;;4911917;29;20048;-50
2022/06/29 00:06:57;;;;;;;3.38;0.80;;;19.30;54.10;;;;;;4915171;29;20055;-52
2022/06/29 00:09:27;;;;;;;1.33;0.90;;;19.20;54.40;;;;;;4914930;29;20056;-48
2022/06/29 00:11:55;;;;;;;0.95;0.90;;;19.20;54.10;;;;;;4913552;29;20044;-49
2022/06/29 00:14:26;;;;;;;1.27;1.05;;;19.20;54.20;;;;;;4910412;29;20052;-47
2022/06/29 00:16:58;;;;;;;1.75;1.15;;;19.10;54.50;;;;;;4914635;29;20385;-51
2022/06/29 00:19:25;;;;;;;0.98;0.90;;;19.10;54.30;;;;;;4914329;29;20072;-47
2022/06/29 00:21:51;;;;;;;5.07;1.00;;;19.10;54.40;;;;;;4908232;29;20103;-49
2022/06/29 00:24:18;;;;;;;1.60;1.10;;;19.00;54.40;;;;;;4910090;29;20638;-48
2022/06/29 00:26:45;;;;;;;1.80;1.13;;;19.00;54.40;;;;;;4914961;29;20095;-50
2022/06/29 00:29:12;;;;;;;0.95;0.82;;;19.00;54.50;;;;;;4912456;29;20052;-47
2022/06/29 00:31:41;;;;;;;1.80;1.00;;;18.90;54.60;;;;;;4913859;29;20048;-52
2022/06/29 00:34:11;;;;;;;2.45;1.15;;;18.90;54.80;;;;;;4911140;29;20052;-50
2022/06/29 00:36:42;;;;;;;1.70;1.50;;;18.90;54.60;;;;;;4914054;29;20120;-47
2022/06/29 00:39:11;;;;;;;2.45;1.10;;;18.80;54.70;;;;;;4913359;29;20055;-53
2022/06/29 00:41:44;;;;;;;1.60;1.02;;;18.80;54.70;;;;;;4904512;29;20112;-48
2022/06/29 00:44:16;;;;;;;1.38;0.90;;;18.80;54.90;;;;;;4912903;29;20040;-47
2022/06/29 00:47:04;;;;;;;3.10;0.93;;;18.80;55.20;;;;;;4914142;29;20500;-48
2022/06/29 00:49:33;;;;;;;5.43;1.20;;;18.70;55.50;;;;;;4914036;29;20052;-48
2022/06/29 00:52:03;;;;;;;1.60;1.10;;;18.70;54.80;;;;;;4908669;29;20048;-48
2022/06/29 00:54:42;;;;;;;1.20;1.10;;;18.70;54.90;;;;;;4913657;29;20111;-51
2022/06/29 00:57:15;;;;;;;1.95;0.75;;;18.60;55.60;;;;;;4914511;29;20099;-49
2022/06/29 00:59:47;;;;;;;1.70;0.95;;;18.60;55.30;;;;;;4905934;29;20041;-50
2022/06/29 01:02:17;;;;;;;1.20;1.10;;;18.60;55.50;;;;;;4912294;29;20173;-48
2022/06/29 01:04:47;;;;;;;2.45;0.98;;;18.50;55.10;;;;;;4926468;29;20127;-47
2022/06/29 01:07:16;;;;;;;3.03;1.23;;;18.50;55.10;;;;;;4932831;29;20094;-49
2022/06/29 01:09:43;;;;;;;1.05;1.00;;;18.50;55.30;;;;;;4911146;29;20040;-51
2022/06/29 01:12:10;;;;;;;1.30;1.17;;;18.40;55.40;;;;;;4913244;29;20185;-47
2022/06/29 01:14:42;;;;;;;1.05;1.00;;;18.40;55.50;;;;;;4913747;29;20210;-47
2022/06/29 01:17:11;;;;;;;1.20;1.10;;;18.40;55.80;;;;;;4909509;29;20104;-46
2022/06/29 01:19:42;;;;;;;2.45;1.10;;;18.40;55.80;;;;;;4907541;29;20042;-47
2022/06/29 01:22:10;;;;;;;3.03;1.40;;;18.30;55.80;;;;;;4913507;29;20040;-48
2022/06/29 01:24:38;;;;;;;2.75;1.35;;;18.30;55.80;;;;;;4913705;29;20044;-47
2022/06/29 01:27:05;;;;;;;1.52;1.20;;;18.30;55.90;;;;;;4911340;29;20080;-49
2022/06/29 01:29:37;;;;;;;2.92;1.40;;;18.30;56.00;;;;;;4907612;29;20048;-50
2022/06/29 01:32:04;;;;;;;1.58;1.27;;;18.30;56.40;;;;;;4913710;29;20044;-48
2022/06/29 01:34:31;;;;;;;1.70;1.60;;;18.20;56.10;;;;;;4914138;29;20141;-51
2022/06/29 01:36:59;;;;;;;2.67;1.25;;;18.20;56.20;;;;;;4909639;29;20064;-52
2022/06/29 01:39:34;;;;;;;3.40;1.30;;;18.20;56.30;;;;;;4909315;29;20127;-47
2022/06/29 01:42:04;;;;;;;3.22;1.67;;;18.20;56.50;;;;;;4913161;29;20044;-50
2022/06/29 01:44:31;;;;;;;4.00;1.42;;;18.20;56.20;;;;;;4911418;29;20555;-47
2022/06/29 01:46:58;;;;;;;1.20;1.10;;;18.20;56.30;;;;;;4911978;29;20048;-49
2022/06/29 01:49:25;;;;;;;1.45;1.35;;;18.20;56.30;;;;;;4916399;29;20095;-47
2022/06/29 01:51:55;;;;;;;8.82;1.45;;;18.10;56.20;;;;;;4917599;29;20116;-48
2022/06/29 01:54:22;;;;;;;4.25;1.27;;;18.20;56.50;;;;;;4914100;29;20048;-50
2022/06/29 01:56:49;;;;;;;1.75;1.13;;;18.10;56.10;;;;;;4908807;29;20171;-50
2022/06/29 01:59:19;;;;;;;2.30;1.65;;;18.10;56.20;;;;;;4916619;29;20036;-49
2022/06/29 02:01:48;;;;;;;2.72;1.20;;;18.10;56.20;;;;;;4917223;29;20040;-51
2022/06/29 02:04:17;;;;;;;2.40;1.30;;;18.00;56.10;;;;;;4917046;29;20441;-51
2022/06/29 02:06:44;;;;;;;2.50;1.30;;;18.00;56.10;;;;;;4914376;29;20040;-51
2022/06/29 02:09:11;;;;;;;1.88;1.40;;;17.90;56.10;;;;;;4916463;29;20052;-46
2022/06/29 02:11:40;;;;;;;3.40;1.60;;;17.90;56.20;;;;;;4916964;29;20082;-49
2022/06/29 02:14:07;;;;;;;1.00;1.00;;;17.90;56.30;;;;;;4917612;29;20459;-47
2022/06/29 02:16:35;;;;;;;2.38;1.42;;;17.90;56.40;;;;;;4911084;29;20115;-48
2022/06/29 02:19:02;;;;;;;2.08;1.40;;;17.80;56.40;;;;;;4916774;29;20115;-47
2022/06/29 02:21:29;;;;;;;2.08;1.30;;;17.80;56.50;;;;;;4917147;29;20381;-48
2022/06/29 02:24:00;;;;;;;1.20;1.10;;;17.80;56.50;;;;;;4915621;29;20052;-47
2022/06/29 02:26:27;;;;;;;1.33;1.10;;;17.70;56.60;;;;;;4910376;29;20048;-48
2022/06/29 02:28:54;;;;;;;4.00;1.23;;;17.70;56.60;;;;;;4916550;29;20103;-48
2022/06/29 02:36:57;;;;;;;1.65;1.23;;;17.60;56.30;;;;;;4916124;29;20504;-49
2022/06/29 02:39:24;;;;;;;3.03;1.40;;;17.60;56.30;;;;;;4916005;29;20048;-47
2022/06/29 02:41:52;;;;;;;1.45;1.35;;;17.60;56.40;;;;;;4916832;29;20051;-47
2022/06/29 02:44:19;;;;;;;1.27;1.17;;;17.60;56.50;;;;;;4914027;29;20032;-49
2022/06/29 02:46:48;;;;;;;1.27;1.10;;;17.50;56.50;;;;;;4909003;29;20044;-49
2022/06/29 02:49:17;;;;;;;5.38;1.50;;;17.50;56.60;;;;;;4916368;29;20100;-47
2022/06/29 02:51:43;;;;;;;1.98;1.63;;;17.40;56.70;;;;;;4915370;29;20099;-47
2022/06/29 02:54:13;;;;;;;1.98;1.27;;;17.40;56.70;;;;;;4914776;29;20036;-47
2022/06/29 02:56:41;;;;;;;2.00;1.80;;;17.40;56.80;;;;;;4906664;29;20541;-47
2022/06/29 02:59:12;;;;;;;2.75;1.55;;;17.40;56.90;;;;;;4905435;29;20104;-50
2022/06/29 03:01:41;;;;;;;2.53;1.63;;;17.40;56.90;;;;;;4906708;29;20585;-50
2022/06/29 03:04:09;;;;;;;1.55;1.45;;;17.30;57.20;;;;;;4914959;29;20038;-48
2022/06/29 03:06:36;;;;;;;2.10;1.50;;;17.30;57.10;;;;;;4915927;29;20076;-49
2022/06/29 03:09:03;;;;;;;1.58;1.48;;;17.30;57.10;;;;;;4915342;29;20040;-50
2022/06/29 03:11:33;;;;;;;3.03;1.50;;;17.30;57.20;;;;;;4909413;29;20044;-48
2022/06/29 03:14:04;;;;;;;3.00;1.42;;;17.30;57.10;;;;;;4913767;29;20044;-51
2022/06/29 03:16:31;;;;;;;1.98;1.70;;;17.20;57.30;;;;;;4905504;29;20036;-50
2022/06/29 03:19:03;;;;;;;3.88;1.88;;;17.20;57.20;;;;;;4912921;29;20055;-47
2022/06/29 03:21:35;;;;;;;1.55;1.45;;;17.20;57.50;;;;;;4912998;29;20036;-47
2022/06/29 03:24:03;;;;;;;1.77;1.52;;;17.20;57.40;;;;;;4914356;29;20044;-47
2022/06/29 03:26:31;;;;;;;2.78;1.60;;;17.10;57.50;;;;;;4912553;29;20044;-47
2022/06/29 03:28:58;;;;;;;1.65;1.55;;;17.10;57.60;;;;;;4913669;29;20080;-49
2022/06/29 03:31:25;;;;;;;1.95;1.58;;;17.10;57.60;;;;;;4912933;29;20099;-51
2022/06/29 03:33:51;;;;;;;1.85;1.58;;;17.10;57.70;;;;;;4915033;29;20052;-50
2022/06/29 03:36:21;;;;;;;4.13;1.65;;;17.10;57.70;;;;;;4914287;29;20067;-53
2022/06/29 03:38:47;;;;;;;2.45;1.50;;;17.10;57.60;;;;;;4909347;29;20628;-52
2022/06/29 03:41:14;;;;;;;5.53;2.00;;;17.10;57.70;;;;;;4912515;29;20115;-47
2022/06/29 03:43:43;;;;;;;1.50;1.40;;;17.10;57.70;;;;;;4905500;29;20056;-48
2022/06/29 03:46:13;;;;;;;1.85;1.73;;;17.10;57.70;;;;;;4908941;29;20043;-50
2022/06/29 03:48:40;;;;;;;4.40;2.13;;;17.10;57.70;;;;;;4910506;29;20692;-53
2022/06/29 03:51:08;;;;;;;8.38;2.35;;;17.00;57.70;;;;;;4897175;29;20055;-48
2022/06/29 03:53:37;;;;;;;2.13;1.42;;;17.00;57.80;;;;;;4914478;29;20099;-48
2022/06/29 03:56:04;;;;;;;4.18;1.63;;;17.00;57.80;;;;;;4913333;29;20498;-50
2022/06/29 03:58:31;;;;;;;3.58;1.35;;;17.00;58.10;;;;;;4907021;29;20111;-50
2022/06/29 04:00:59;;;;;;;4.60;1.50;;;17.00;58.30;;;;;;4906077;29;20044;-52
2022/06/29 04:03:26;;;;;;;1.80;1.70;;;17.00;58.40;;;;;;4914446;29;20074;-48
2022/06/29 04:05:55;;;;;;;2.83;2.03;;;17.00;59.20;;;;;;4910308;29;20047;-52
2022/06/29 04:08:22;;;;;;;2.78;1.98;;;17.00;58.50;;;;;;4908721;29;20123;-49
2022/06/29 04:10:49;;;;;;;4.72;1.52;;;17.00;58.70;;;;;;4913788;29;20040;-47
2022/06/29 04:13:16;;;;;;;2.38;1.85;;;17.00;58.90;;;;;;4905050;29;20123;-49
2022/06/29 04:15:43;;;;;;;1.83;1.42;;;17.00;58.90;;;;;;4913200;23;20075;-46
2022/06/29 04:18:11;;;;;;;2.45;1.67;;;17.00;59.10;;;;;;4913844;29;20048;-47
2022/06/29 04:23:28;;;;;;;3.53;1.77;;;17.10;59.30;;;;;;4913202;29;20135;-45
2022/06/29 04:25:57;;;;;;;2.70;2.22;;;17.10;59.40;;;;;;4907655;29;20548;-45
2022/06/29 04:28:26;;;;;;;4.30;2.10;;;17.10;59.50;;;;;;4911063;29;20032;-46
2022/06/29 04:30:57;;;;;;;2.63;2.00;;;17.10;59.70;;;;;;4915090;29;20052;-45
2022/06/29 04:33:26;;;;;;;3.13;2.20;;;17.20;60.30;;;;;;4910948;29;20530;-46
2022/06/29 04:35:59;;;;;;;2.50;2.28;;;17.20;60.20;;;;;;4911430;29;20504;-46
2022/06/29 04:38:28;;;;;;;2.15;1.80;;;17.20;60.50;;;;;;4904749;29;20051;-45
2022/06/29 04:40:55;;;;;;;3.15;2.40;;;17.20;60.70;;;;;;4906617;29;20563;-45
2022/06/29 04:43:23;;;;;;;4.70;1.92;;;17.30;60.60;;;;;;4913314;29;20046;-47
2022/06/29 04:48:43;;;;;;;2.47;1.75;;;17.40;61.00;;;;;;4911499;29;20150;-46
2022/06/29 04:51:10;;;;;;;3.08;2.15;;;17.40;61.20;;;;;;4912040;29;20048;-48
2022/06/29 04:53:39;;;;;;;4.22;2.20;;;17.50;61.20;;;;;;4915082;29;20067;-46
2022/06/29 04:56:05;;;;;;;2.58;2.13;;;17.50;61.30;;;;;;4916488;29;20051;-45
2022/06/29 04:58:32;;;;;;;2.80;1.85;;;17.60;61.60;;;;;;4913814;29;20100;-51
2022/06/29 05:01:03;;;;;;;2.38;1.85;;;17.60;61.70;;;;;;4917414;29;20126;-49
2022/06/29 05:03:30;;;;;;;3.42;1.98;;;17.60;62.10;;;;;;4910470;29;20592;-47
2022/06/29 05:05:58;;;;;;;3.08;1.98;;;17.70;62.00;;;;;;4911294;29;20058;-46
2022/06/29 05:08:27;;;;;;;3.75;2.20;;;17.70;62.20;;;;;;4909963;29;20040;-50
2022/06/29 05:10:56;;;;;;;2.22;2.03;;;17.80;62.40;;;;;;4911968;29;20083;-48
2022/06/29 05:13:23;;;;;;;3.67;2.25;;;17.80;62.70;;;;;;4910224;29;20080;-46
2022/06/29 05:15:52;;;;;;;3.05;2.22;;;17.90;63.00;;;;;;4915598;29;20048;-50
2022/06/29 05:18:21;;;;;;;3.63;2.83;;;18.00;63.20;;;;;;4914774;29;20075;-51
2022/06/29 05:21:04;;;;;;;3.83;2.80;;;18.10;63.60;;;;;;4906819;29;20448;-45
2022/06/29 05:23:31;;;;;;;5.78;2.90;;;18.20;64.00;;;;;;4902403;29;20052;-47
2022/06/29 05:26:00;;;;;;;5.70;3.30;;;18.30;63.70;;;;;;4910815;29;20123;-48
2022/06/29 05:28:33;;;;;;;4.20;3.13;;;18.40;63.90;;;;;;4911620;29;20067;-48
2022/06/29 05:31:02;;;;;;;4.10;3.35;;;18.60;63.80;;;;;;4909990;29;20083;-49
2022/06/29 05:33:36;;;;;;;3.58;2.78;;;18.70;63.80;;;;;;4907285;29;20044;-49
2022/06/29 05:36:07;;;;;;;4.10;3.40;;;18.80;63.40;;;;;;4911240;29;20044;-50
2022/06/29 05:38:39;;;;;;;3.17;2.88;;;18.90;63.40;;;;;;4912104;29;20060;-50
2022/06/29 05:41:07;;;;;;;4.32;3.42;;;19.10;63.30;;;;;;4905628;29;20044;-49
2022/06/29 05:43:34;;;;;;;4.40;3.05;;;19.20;63.30;;;;;;4908092;29;20074;-50
2022/06/29 05:46:03;;;;;;;5.35;2.80;;;19.30;63.60;;;;;;4908512;29;20052;-50
2022/06/29 05:48:32;;;;;;;3.28;2.97;;;19.40;63.40;;;;;;4908186;29;20055;-47
2022/06/29 05:51:09;;;;;;;4.00;2.83;;;19.50;63.50;;;;;;4911492;29;20051;-48
2022/06/29 05:53:36;;;;;;;3.28;2.97;;;19.60;63.80;;;;;;4911883;29;20143;-47
2022/06/29 05:56:07;;;;;;;3.20;2.53;;;19.60;63.70;;;;;;4906142;29;20112;-48
2022/06/29 05:58:38;;;;;;;3.50;2.70;;;19.70;64.00;;;;;;4912125;29;20048;-45
2022/06/29 06:01:11;;;;;;;3.13;2.63;;;19.90;64.10;;;;;;4911898;29;20040;-50
2022/06/29 06:03:40;;;;;;;5.95;3.20;;;19.90;63.50;;;;;;4912313;29;20120;-46
2022/06/29 06:06:12;;;;;;;3.20;2.90;;;20.00;63.70;;;;;;4912966;29;20107;-51
2022/06/29 06:08:41;;;;;;;3.72;2.72;;;20.10;63.30;;;;;;4908545;29;20448;-50
2022/06/29 06:11:10;;;;;;;3.38;2.70;;;20.20;63.40;;;;;;4910220;29;20090;-46
2022/06/29 06:13:39;;;;;;;4.90;2.75;;;20.30;63.60;;;;;;4913498;29;20052;-50
2022/06/29 06:16:05;;;;;;;5.43;2.85;;;20.40;63.40;;;;;;4913010;29;20103;-50
2022/06/29 06:18:55;;;;;;;3.83;2.83;;;20.50;63.60;;;;;;4901331;29;20044;-50
2022/06/29 06:21:23;;;;;;;2.97;2.63;;;20.60;62.30;;;;;;4912293;29;20063;-49
2022/06/29 06:23:51;;;;;;;3.17;2.80;;;20.80;62.30;;;;;;4913516;29;20059;-46
2022/06/29 06:26:18;;;;;;;5.63;2.42;;;20.80;62.10;;;;;;4909887;29;20048;-46
2022/06/29 06:28:50;;;;;;;2.92;2.13;;;20.90;61.90;;;;;;4910497;29;20047;-46
2022/06/29 06:31:22;;;;;;;4.30;2.72;;;21.00;61.60;;;;;;4905092;29;20046;-48
2022/06/29 06:33:58;;;;;;;6.97;3.15;;;21.10;61.20;;;;;;4914226;29;20059;-48
2022/06/29 06:36:24;;;;;;;3.53;3.20;;;21.20;61.60;;;;;;4913365;29;20056;-46
2022/06/29 06:38:54;;;;;;;4.43;3.20;;;21.20;61.10;;;;;;4910595;29;20081;-46
2022/06/29 06:41:22;;;;;;;6.95;3.75;;;21.20;60.80;;;;;;4915824;29;20381;-50
2022/06/29 06:43:56;;;;;;;5.53;3.60;;;21.20;61.30;;;;;;4915955;29;20075;-47
2022/06/29 06:46:28;;;;;;;7.50;3.60;;;21.20;61.30;;;;;;4910282;29;20400;-49
2022/06/29 06:48:59;;;;;;;8.43;3.92;;;21.20;61.70;;;;;;4916749;29;20048;-48
2022/06/29 06:51:28;;;;;;;3.83;3.38;;;21.20;61.50;;;;;;4915188;29;20473;-47
2022/06/29 06:53:56;;;;;;;5.57;2.53;;;21.20;61.60;;;;;;4914842;29;20055;-46
2022/06/29 06:56:26;;;;;;;8.73;3.50;;;21.20;61.90;;;;;;4910409;29;20047;-47
2022/06/29 06:58:58;;;;;;;7.65;3.42;;;21.20;62.20;;;;;;4913208;29;20052;-48
2022/06/29 07:01:25;;;;;;;6.72;3.90;;;21.20;62.00;;;;;;4896477;29;20100;-48
2022/06/29 07:03:52;;;;;;;7.40;3.25;;;21.30;61.90;;;;;;4897543;29;20128;-47
2022/06/29 07:06:21;;;;;;;10.82;3.72;;;21.20;62.10;;;;;;4905745;29;20487;-50
2022/06/29 07:08:49;;;;;;;15.05;4.00;;;21.20;61.80;;;;;;4916778;29;20044;-50
2022/06/29 07:11:16;;;;;;;7.03;3.47;;;21.30;62.00;;;;;;4915734;29;20123;-45
2022/06/29 07:13:43;;;;;;;5.47;3.88;;;21.30;62.00;;;;;;4914360;29;20048;-47
2022/06/29 07:16:09;;;;;;;7.00;3.75;;;21.30;62.00;;;;;;4910029;29;20048;-50
2022/06/29 07:18:38;;;;;;;8.88;3.22;;;21.30;61.60;;;;;;4916023;29;20052;-47
2022/06/29 07:21:07;;;;;;;9.05;2.80;;;21.40;61.30;;;;;;4915669;29;20099;-47
2022/06/29 07:23:34;;;;;;;9.38;2.55;;;21.40;60.90;;;;;;4912942;29;20044;-49
2022/06/29 07:26:01;;;;;;;5.45;2.72;;;21.50;61.20;;;;;;4910218;29;20075;-45
2022/06/29 07:28:28;;;;;;;7.18;2.47;;;21.60;61.00;;;;;;4911622;29;20452;-46
2022/06/29 07:30:55;;;;;;;9.65;2.85;;;21.70;60.70;;;;;;4915616;29;20051;-46
2022/06/29 07:33:22;;;;;;;9.25;4.00;;;21.80;60.40;;;;;;4907363;29;20052;-46
2022/06/29 07:35:51;;;;;;;6.70;2.95;;;21.90;60.30;;;;;;4907182;29;20120;-46
2022/06/29 07:38:19;;;;;;;9.60;2.42;;;22.10;60.00;;;;;;4915850;29;20044;-46
2022/06/29 07:40:48;;;;;;;8.45;2.97;;;22.20;59.60;;;;;;4913018;29;20107;-47
2022/06/29 07:43:17;;;;;;;7.05;2.35;;;22.30;59.60;;;;;;4912611;29;20040;-50
2022/06/29 07:45:44;;;;;;;8.05;3.08;;;22.50;59.50;;;;;;4910754;29;20048;-48
2022/06/29 07:48:24;;;;;;;11.48;2.72;;;22.60;59.00;;;;;;4913005;29;20048;-47
2022/06/29 07:50:54;;;;;;;6.63;2.67;;;22.80;58.60;;;;;;4911243;29;20063;-48
2022/06/29 07:53:22;;;;;;;7.43;2.95;;;23.00;58.00;;;;;;4903824;29;20047;-47
2022/06/29 07:55:53;;;;;;;13.30;3.40;;;23.10;58.30;;;;;;4919519;29;20048;-50
2022/06/29 07:58:20;;;;;;;6.78;2.70;;;23.30;58.60;;;;;;4896849;29;20092;-46
2022/06/29 08:00:52;;;;;;;6.47;2.53;;;23.50;57.40;;;;;;4909076;29;20091;-48
2022/06/29 08:03:19;;;;;;;4.35;2.28;;;23.70;56.40;;;;;;4914004;29;20047;-49
2022/06/29 08:05:50;;;;;;;5.10;2.25;;;23.80;55.20;;;;;;4913638;29;20044;-47
2022/06/29 08:08:17;;;;;;;4.25;2.22;;;24.00;54.70;;;;;;4915064;29;20055;-50
2022/06/29 08:10:54;;;;;;;4.38;1.80;;;24.10;53.90;;;;;;4910096;29;20424;-46
2022/06/29 08:13:20;;;;;;;4.97;2.20;;;24.30;54.10;;;;;;4911485;29;20547;-47
2022/06/29 08:15:49;;;;;;;8.00;2.25;;;24.40;53.00;;;;;;4919841;29;20131;-47
2022/06/29 08:18:20;;;;;;;3.38;1.83;;;24.50;52.20;;;;;;4901845;29;20119;-46
2022/06/29 08:20:46;;;;;;;3.92;2.10;;;24.60;52.10;;;;;;4911416;29;20048;-47
2022/06/29 08:23:13;;;;;;;6.35;2.60;;;24.70;51.20;;;;;;4914808;29;20437;-47
2022/06/29 08:25:40;;;;;;;10.00;3.60;;;24.80;51.00;;;;;;4914003;29;20052;-47
2022/06/29 08:28:32;;;;;;;8.50;2.63;;;24.80;51.10;;;;;;4911741;29;20512;-47
2022/06/29 08:31:02;;;;;;;8.75;2.97;;;24.90;50.60;;;;;;4910173;29;20090;-47
2022/06/29 08:33:38;;;;;;;4.35;2.40;;;24.90;50.70;;;;;;4915612;29;20043;-50
2022/06/29 08:36:05;;;;;;;5.97;2.13;;;25.00;50.70;;;;;;4914491;29;20707;-47
2022/06/29 08:38:36;;;;;;;8.98;3.25;;;25.00;50.90;;;;;;4911982;29;20103;-48
2022/06/29 08:41:08;;;;;;;5.28;2.60;;;25.10;50.50;;;;;;4896768;29;20075;-48
2022/06/29 08:43:36;;;;;;;7.13;3.03;;;25.20;50.60;;;;;;4914500;29;20052;-47
2022/06/29 08:46:03;;;;;;;6.75;2.95;;;25.20;50.70;;;;;;4909022;29;20666;-45
2022/06/29 08:48:30;;;;;;;5.30;2.38;;;25.30;50.40;;;;;;4896084;29;20047;-49
2022/06/29 08:51:00;;;;;;;7.35;2.47;;;25.40;50.80;;;;;;4912950;29;20048;-47
2022/06/29 08:53:32;;;;;;;6.30;2.42;;;25.50;51.30;;;;;;4913977;29;20123;-46
2022/06/29 08:56:01;;;;;;;8.55;3.00;;;25.60;51.50;;;;;;4896074;29;20639;-46
2022/06/29 08:58:27;;;;;;;10.43;3.38;;;25.70;51.50;;;;;;4911109;29;20078;-46
2022/06/29 09:00:59;;;;;;;6.88;2.70;;;25.80;51.60;;;;;;4911355;29;20448;-47
2022/06/29 09:03:28;;;;;;;9.38;2.60;;;25.90;51.60;;;;;;4912679;29;20043;-46
2022/06/29 09:06:00;;;;;;;8.30;2.78;;;26.00;51.10;;;;;;4894377;29;20055;-46
2022/06/29 09:08:30;;;;;;;8.65;3.10;;;26.10;51.40;;;;;;4911130;29;20036;-50
2022/06/29 09:11:25;;;;;;;8.25;2.95;;;26.30;51.30;;;;;;4912301;29;20127;-47
2022/06/29 09:14:08;;;;;;;6.95;2.67;;;26.40;50.90;;;;;;4913110;29;20036;-46
2022/06/29 09:17:03;;;;;;;12.35;3.22;;;26.50;50.10;;;;;;4907673;29;20586;-47
2022/06/29 09:19:49;;;;;;;13.98;2.80;;;26.70;50.40;;;;;;4912909;29;20067;-47
2022/06/29 09:22:49;;;;;;;9.57;3.22;;;26.80;50.10;;;;;;4910505;29;20044;-46
2022/06/29 09:25:24;;;;;;;12.73;3.25;;;26.90;49.00;;;;;;4906394;29;20052;-47
2022/06/29 09:27:55;;;;;;;9.73;3.05;;;26.90;48.90;;;;;;4910141;29;20532;-50
2022/06/29 09:30:38;;;;;;;8.57;2.45;;;27.00;48.50;;;;;;4914107;29;20044;-52
2022/06/29 09:33:07;;;;;;;11.43;3.17;;;27.00;47.60;;;;;;4907268;29;20059;-47
2022/06/29 09:35:38;;;;;;;8.70;3.03;;;27.10;48.00;;;;;;4922572;29;20135;-47
2022/06/29 09:38:26;;;;;;;12.60;2.95;;;27.20;48.10;;;;;;4912243;29;20052;-52
2022/06/29 09:41:05;;;;;;;9.68;2.50;;;27.30;47.50;;;;;;4920562;29;20048;-50
2022/06/29 09:43:39;;;;;;;12.35;3.10;;;27.50;47.70;;;;;;4913743;29;20063;-48
2022/06/29 09:46:10;;;;;;;7.00;2.78;;;27.60;47.60;;;;;;4903252;29;20068;-52
2022/06/29 09:48:39;;;;;;;8.05;2.40;;;27.70;46.70;;;;;;4913502;29;20036;-45
2022/06/29 09:54:10;;;;;;;10.52;2.20;;;28.00;45.60;;;;;;4913162;29;20135;-49
2022/06/29 09:56:46;;;;;;;9.43;2.63;;;28.10;45.20;;;;;;4911227;29;20135;-52
2022/06/29 10:02:45;;;;;;;11.40;2.20;;;28.30;44.40;;;;;;4911915;29;20565;-49
2022/06/29 10:05:31;;;;;;;8.10;2.20;;;28.40;45.40;;;;;;4908519;29;20170;-47
2022/06/29 10:08:11;;;;;;;4.75;1.70;;;28.50;45.10;;;;;;4912604;29;20571;-50
2022/06/29 10:10:37;;;;;;;6.57;1.80;;;28.70;45.10;;;;;;4926481;29;20054;-50
2022/06/29 10:16:30;;;;;;;6.95;2.20;;;28.80;44.10;;;;;;4921787;29;20047;-49
2022/06/29 10:19:20;;;;;;;8.55;2.17;;;29.00;43.40;;;;;;4917298;29;20096;-47
2022/06/29 10:21:49;;;;;;;3.72;1.13;;;29.00;43.00;;;;;;4911080;29;20049;-46
2022/06/29 10:24:18;;;;;;;4.70;2.00;;;29.00;42.60;;;;;;4927784;23;20139;-48
2022/06/29 10:26:47;;;;;;;4.55;1.40;;;28.90;42.50;;;;;;4916003;29;20643;-48
2022/06/29 10:29:18;;;;;;;2.53;1.70;;;28.90;42.20;;;;;;4917976;29;20047;-52
2022/06/29 10:31:54;;;;;;;12.68;1.83;;;28.80;41.00;;;;;;4916691;29;20052;-49
2022/06/29 10:37:02;;;;;;;3.50;2.25;;;28.60;41.20;;;;;;4902983;29;20080;-54
2022/06/29 10:39:43;;;;;;;4.43;1.75;;;28.50;41.50;;;;;;4895131;29;20442;-50
2022/06/29 10:45:25;;;;;;;2.47;1.73;;;28.30;41.80;;;;;;4886386;29;20052;-51
2022/06/29 10:47:52;;;;;;;2.10;1.60;;;28.20;40.80;;;;;;4892044;29;20504;-50
2022/06/29 10:50:28;;;;;;;4.32;1.38;;;28.10;41.90;;;;;;4881555;29;20052;-48
2022/06/29 10:53:06;;;;;;;6.60;1.90;;;28.00;41.70;;;;;;4909453;29;20487;-55
2022/06/29 10:55:36;;;;;;;4.07;1.80;;;28.00;42.40;;;;;;4898165;29;20056;-53
2022/06/29 10:58:05;;;;;;;4.57;1.50;;;28.00;41.90;;;;;;4896516;29;20056;-52
2022/06/29 11:00:39;;;;;;;2.05;1.58;;;27.90;41.80;;;;;;4893304;29;20044;-49
2022/06/29 11:03:13;;;;;;;2.53;1.67;;;27.90;41.80;;;;;;4889155;29;20462;-52
2022/06/29 11:14:03;;;;;;;3.65;1.60;;;27.80;42.00;;;;;;4894117;29;20072;-51
2022/06/29 11:16:36;;;;;;;4.25;1.92;;;27.80;42.40;;;;;;4895821;29;20073;-49
2022/06/29 11:19:07;;;;;;;6.15;2.47;;;27.80;42.70;;;;;;4880773;29;20076;-53
2022/06/29 11:21:34;;;;;;;4.90;2.08;;;27.90;42.60;;;;;;4895772;29;20049;-50
2022/06/29 11:24:06;;;;;;;2.10;1.70;;;27.80;42.50;;;;;;4896140;29;20053;-49
2022/06/29 11:26:34;;;;;;;6.38;2.08;;;27.80;42.60;;;;;;4895667;29;20104;-52
2022/06/29 11:29:02;;;;;;;2.45;1.60;;;27.90;43.00;;;;;;4893578;29;20394;-51
2022/06/29 11:31:29;;;;;;;2.58;1.50;;;27.90;43.20;;;;;;4895663;29;20033;-52
2022/06/29 11:33:59;;;;;;;1.95;1.70;;;27.90;41.50;;;;;;4894003;29;20048;-50
2022/06/29 11:36:29;;;;;;;2.35;1.23;;;28.00;40.70;;;;;;4895671;29;20408;-53
2022/06/29 11:39:06;;;;;;;3.00;1.67;;;28.10;41.10;;;;;;4894077;29;20040;-51
2022/06/29 11:44:27;;;;;;;3.80;1.50;;;28.20;41.40;;;;;;4894199;29;20110;-50
2022/06/29 11:46:56;;;;;;;4.68;1.23;;;28.30;39.40;;;;;;4891388;29;20500;-52
2022/06/29 11:49:38;;;;;;;4.85;1.65;;;28.30;40.70;;;;;;4882264;29;20571;-50
2022/06/29 11:52:12;;;;;;;1.42;1.00;;;28.40;40.20;;;;;;4882372;29;20044;-54
2022/06/29 11:54:47;;;;;;;4.57;1.15;;;28.40;40.70;;;;;;4894627;29;20044;-49
2022/06/29 11:57:18;;;;;;;4.22;1.25;;;28.50;40.70;;;;;;4894541;29;20563;-48
2022/06/29 11:59:47;;;;;;;2.67;1.20;;;28.60;40.20;;;;;;4895315;29;20409;-51
2022/06/29 12:02:17;;;;;;;2.30;1.13;;;28.70;39.60;;;;;;4894192;29;20040;-47
2022/06/29 12:04:46;;;;;;;2.28;1.05;;;28.70;39.10;;;;;;4895384;29;20521;-46
2022/06/29 12:07:16;;;;;;;2.55;1.10;;;28.90;37.60;;;;;;4891598;29;20053;-50
2022/06/29 12:09:49;;;;;;;2.40;1.23;;;28.90;37.50;;;;;;4896466;29;20417;-50
2022/06/29 12:12:19;;;;;;;1.75;1.20;;;29.00;37.30;;;;;;4878082;29;20049;-49
2022/06/29 12:14:46;;;;;;;1.45;1.35;;;29.10;37.40;;;;;;4879126;29;20048;-47
2022/06/29 12:17:14;;;;;;;1.33;1.23;;;29.10;37.40;;;;;;4893295;29;20093;-46
2022/06/29 12:19:44;;;;;;;2.13;0.88;;;29.20;37.50;;;;;;4896298;29;20081;-47
2022/06/29 12:22:10;;;;;;;3.40;1.25;;;29.30;37.90;;;;;;4896851;29;20104;-47
2022/06/29 12:24:38;;;;;;;3.42;1.00;;;29.40;37.10;;;;;;4894211;29;20079;-49
2022/06/29 12:27:07;;;;;;;4.35;1.02;;;29.50;37.60;;;;;;4882192;29;20068;-50
2022/06/29 12:29:36;;;;;;;1.20;0.80;;;29.60;37.00;;;;;;4892568;29;20044;-51
2022/06/29 12:32:06;;;;;;;3.47;1.20;;;29.60;36.60;;;;;;4889582;29;20060;-53
2022/06/29 12:34:33;;;;;;;1.92;0.75;;;29.70;36.00;;;;;;4883996;29;20465;-49
2022/06/29 12:37:10;;;;;;;2.13;0.90;;;29.80;36.10;;;;;;4893431;29;20100;-50
2022/06/29 12:39:38;;;;;;;4.10;0.73;;;29.90;36.40;;;;;;4893337;29;20120;-51
2022/06/29 12:42:16;;;;;;;2.17;1.23;;;30.00;35.80;;;;;;4894411;29;20377;-49
2022/06/29 12:44:42;;;;;;;5.25;1.80;;;30.10;35.90;;;;;;4887848;29;20572;-47
2022/06/29 12:47:12;;;;;;;3.63;1.00;;;30.20;37.10;;;;;;4886711;29;20066;-53
2022/06/29 12:49:42;;;;;;;6.65;1.70;;;30.30;36.50;;;;;;4894786;29;20045;-47
2022/06/29 12:52:11;;;;;;;12.38;4.70;;;30.30;36.50;;;;;;4894600;29;20505;-47
2022/06/29 12:54:38;;;;;;;5.43;1.85;;;30.40;36.20;;;;;;4890497;29;20099;-51
2022/06/29 12:57:05;;;;;;;6.55;1.75;;;30.60;36.20;;;;;;4896022;29;20055;-50
2022/06/29 12:59:34;;;;;;;13.57;5.68;;;30.70;35.90;;;;;;4895641;29;20052;-49
2022/06/29 13:02:00;;;;;;;1.55;1.20;;;30.90;35.20;;;;;;4892482;29;20104;-50
2022/06/29 13:04:29;;;;;;;3.65;1.33;;;30.90;35.80;;;;;;4894433;29;20044;-46
2022/06/29 13:06:59;;;;;;;4.03;2.13;;;31.00;35.30;;;;;;4894695;29;20045;-48
2022/06/29 13:09:29;;;;;;;1.83;1.50;;;31.10;35.40;;;;;;4895520;29;20057;-51
2022/06/29 13:11:58;;;;;;;5.50;1.55;;;31.20;34.50;;;;;;4887886;29;20049;-52
2022/06/29 13:14:25;;;;;;;2.80;1.40;;;31.30;34.40;;;;;;4894569;29;20084;-49
2022/06/29 13:16:54;;;;;;;3.78;1.52;;;31.50;34.40;;;;;;4895935;29;20116;-50
2022/06/29 13:19:23;;;;;;;1.25;1.00;;;31.60;34.00;;;;;;4890330;29;20505;-52
2022/06/29 13:21:53;;;;;;;2.28;1.00;;;31.70;34.20;;;;;;4895795;29;20045;-51
2022/06/29 13:24:24;;;;;;;1.60;0.90;;;31.80;34.10;;;;;;4887371;29;20040;-53
2022/06/29 13:27:00;;;;;;;1.30;0.68;;;32.10;34.20;;;;;;4893098;29;20048;-49
2022/06/29 13:29:27;;;;;;;2.75;1.38;;;32.30;34.20;;;;;;4883262;29;20556;-53
2022/06/29 13:31:59;;;;;;;2.47;1.00;;;32.40;33.50;;;;;;4891042;29;20045;-49
2022/06/29 13:34:29;;;;;;;1.40;1.15;;;32.80;33.20;;;;;;4891297;29;20039;-50
2022/06/29 13:36:56;;;;;;;1.30;1.20;;;33.40;34.00;;;;;;4892614;29;20134;-49
2022/06/29 13:39:23;;;;;;;0.77;0.77;;;34.10;33.70;;;;;;4888545;29;20099;-55